createdAt,value
2023-07-20T00:01:26.831Z,45.06
2023-07-20T00:04:17.356Z,45.21
2023-07-20T00:07:07.009Z,45.78
2023-07-20T00:09:55.777Z,45.71
2023-07-20T00:12:48.107Z,45.72
2023-07-20T00:15:37.243Z,45.69
2023-07-20T00:18:25.921Z,45.58
2023-07-20T00:21:18.863Z,45.53
2023-07-20T00:24:08.049Z,45.32
2023-07-20T00:26:56.794Z,45.74
2023-07-20T00:29:45.930Z,45.66
2023-07-20T00:32:34.672Z,45.66
2023-07-20T00:35:23.393Z,45.50
2023-07-20T00:38:13.660Z,45.61
2023-07-20T00:41:02.417Z,45.66
2023-07-20T00:43:51.884Z,45.88
2023-07-20T00:46:42.836Z,45.72
2023-07-20T00:49:32.073Z,45.54
2023-07-20T00:52:21.555Z,45.84
2023-07-20T00:55:12.088Z,45.51
2023-07-20T00:58:01.920Z,45.76
2023-07-20T01:00:50.656Z,45.56
2023-07-20T01:03:39.815Z,45.54
2023-07-20T01:06:36.669Z,45.60
2023-07-20T01:09:31.207Z,45.17
2023-07-20T01:12:28.958Z,45.41
2023-07-20T01:15:17.772Z,44.92
2023-07-20T01:18:06.690Z,45.30
2023-07-20T01:21:01.967Z,45.52
2023-07-20T01:24:19.276Z,45.05
2023-07-20T01:27:55.118Z,45.04
2023-07-20T01:31:02.221Z,44.92
2023-07-20T01:33:54.728Z,44.73
2023-07-20T01:36:45.204Z,44.50
2023-07-20T01:39:34.925Z,44.65
2023-07-20T01:42:25.082Z,44.78
2023-07-20T01:45:13.923Z,44.42
2023-07-20T01:48:02.665Z,44.18
2023-07-20T01:50:52.767Z,44.02
2023-07-20T01:53:41.418Z,44.08
2023-07-20T01:56:30.177Z,44.40
2023-07-20T01:59:19.170Z,44.26
2023-07-20T02:02:07.929Z,44.23
2023-07-20T02:04:56.648Z,44.08
2023-07-20T02:07:46.725Z,44.00
2023-07-20T02:10:35.421Z,44.21
2023-07-20T02:13:24.085Z,44.04
2023-07-20T02:16:13.047Z,44.25
2023-07-20T02:19:01.747Z,44.26
2023-07-20T02:21:50.418Z,44.18
2023-07-20T02:24:40.534Z,44.49
2023-07-20T02:27:29.186Z,44.57
2023-07-20T02:30:18.761Z,44.67
2023-07-20T02:33:07.643Z,44.74
2023-07-20T02:35:56.510Z,44.68
2023-07-20T02:38:45.285Z,44.70
2023-07-20T02:41:36.176Z,44.62
2023-07-20T02:44:25.208Z,44.73
2023-07-20T02:47:14.750Z,44.89
2023-07-20T02:50:03.526Z,45.03
2023-07-20T02:52:52.408Z,44.65
2023-07-20T02:55:41.144Z,44.94
2023-07-20T02:58:31.213Z,44.65
2023-07-20T03:01:19.998Z,44.62
2023-07-20T03:04:09.020Z,44.80
2023-07-20T03:06:57.784Z,44.73
2023-07-20T03:09:46.501Z,44.68
2023-07-20T03:12:35.833Z,44.96
2023-07-20T03:15:25.945Z,44.98
2023-07-20T03:18:14.732Z,44.74
2023-07-20T03:21:03.547Z,45.02
2023-07-20T03:23:52.228Z,44.70
2023-07-20T03:26:41.072Z,45.03
2023-07-20T03:29:29.841Z,44.60
2023-07-20T03:32:19.992Z,44.98
2023-07-20T03:35:09.774Z,44.87
2023-07-20T03:37:58.541Z,44.71
2023-07-20T03:40:53.916Z,44.60
2023-07-20T03:43:42.685Z,44.78
2023-07-20T03:46:31.376Z,44.93
2023-07-20T03:49:21.556Z,44.73
2023-07-20T03:52:10.386Z,44.81
2023-07-20T03:54:59.171Z,44.93
2023-07-20T03:57:47.977Z,44.95
2023-07-20T04:00:37.008Z,44.91
2023-07-20T04:03:27.498Z,44.89
2023-07-20T04:06:18.702Z,45.07
2023-07-20T04:09:07.355Z,44.98
2023-07-20T04:11:56.276Z,45.02
2023-07-20T04:14:45.085Z,45.17
2023-07-20T04:17:34.044Z,45.28
2023-07-20T04:20:23.387Z,45.32
2023-07-20T04:23:13.799Z,45.37
2023-07-20T04:26:02.946Z,45.29
2023-07-20T04:28:52.768Z,45.39
2023-07-20T04:31:41.453Z,45.18
2023-07-20T04:34:30.135Z,45.19
2023-07-20T04:37:18.852Z,45.25
2023-07-20T04:40:10.740Z,45.43
2023-07-20T04:42:59.407Z,45.67
2023-07-20T04:45:48.666Z,45.53
2023-07-20T04:48:37.524Z,45.45
2023-07-20T04:51:26.250Z,45.40
2023-07-20T04:54:15.038Z,45.68
2023-07-20T04:57:06.227Z,45.50
2023-07-20T04:59:55.083Z,45.57
2023-07-20T05:02:43.830Z,45.66
2023-07-20T05:05:32.711Z,45.20
2023-07-20T05:08:23.316Z,45.52
2023-07-20T05:11:12.133Z,45.57
2023-07-20T05:14:02.434Z,45.68
2023-07-20T05:16:51.319Z,45.67
2023-07-20T05:19:41.414Z,45.59
2023-07-20T05:22:32.123Z,45.70
2023-07-20T05:25:23.746Z,45.90
2023-07-20T05:28:12.721Z,45.90
2023-07-20T05:31:05.385Z,46.03
2023-07-20T05:33:54.689Z,45.94
2023-07-20T05:36:43.343Z,46.00
2023-07-20T05:39:32.033Z,46.05
2023-07-20T05:42:20.776Z,46.32
2023-07-20T05:45:10.223Z,46.01
2023-07-20T05:48:00.379Z,46.17
2023-07-20T05:50:49.196Z,46.11
2023-07-20T05:53:39.090Z,46.60
2023-07-20T05:56:27.804Z,46.44
2023-07-20T05:59:16.649Z,46.13
2023-07-20T06:02:05.647Z,46.31
2023-07-20T06:04:55.818Z,46.74
2023-07-20T06:07:44.522Z,46.82
2023-07-20T06:10:33.139Z,47.05
2023-07-20T06:13:21.848Z,47.00
2023-07-20T06:16:10.538Z,46.96
2023-07-20T06:18:59.445Z,46.65
2023-07-20T06:21:50.652Z,46.29
2023-07-20T06:24:39.311Z,46.35
2023-07-20T06:27:29.400Z,46.32
2023-07-20T06:30:20.438Z,46.18
2023-07-20T06:33:10.465Z,46.00
2023-07-20T06:36:01.128Z,46.08
2023-07-20T06:41:43.365Z,46.47
2023-07-20T06:44:32.310Z,46.92
2023-07-20T06:47:23.251Z,46.66
2023-07-20T06:50:17.510Z,46.85
2023-07-20T06:53:07.146Z,46.66
2023-07-20T06:55:58.138Z,46.69
2023-07-20T06:58:46.820Z,46.46
2023-07-20T07:01:35.800Z,46.66
2023-07-20T07:04:24.976Z,47.02
2023-07-20T07:07:13.749Z,47.14
2023-07-20T07:10:05.217Z,47.21
2023-07-20T07:12:55.618Z,47.18
2023-07-20T07:15:45.712Z,47.67
2023-07-20T07:18:36.229Z,47.13
2023-07-20T07:21:26.809Z,46.91
2023-07-20T07:24:19.987Z,46.50
2023-07-20T07:27:09.541Z,45.99
2023-07-20T07:29:59.751Z,45.89
2023-07-20T07:32:48.552Z,45.51
2023-07-20T07:35:37.458Z,45.40
2023-07-20T07:41:20.376Z,44.98
2023-07-20T07:44:09.276Z,44.88
2023-07-20T07:46:59.676Z,44.67
2023-07-20T07:49:48.498Z,44.56
2023-07-20T07:52:37.575Z,44.73
2023-07-20T07:55:27.735Z,44.65
2023-07-20T07:58:18.726Z,44.45
2023-07-20T08:01:07.961Z,44.08
2023-07-20T08:03:58.540Z,43.80
2023-07-20T08:06:47.712Z,43.71
2023-07-20T08:09:37.872Z,43.88
2023-07-20T08:12:26.616Z,43.57
2023-07-20T08:15:15.928Z,43.69
2023-07-20T08:18:05.499Z,43.54
2023-07-20T08:20:55.971Z,43.36
2023-07-20T08:23:44.788Z,43.37
2023-07-20T08:26:34.185Z,43.28
2023-07-20T08:29:23.069Z,43.39
2023-07-20T08:32:12.113Z,42.98
2023-07-20T08:35:01.016Z,43.40
2023-07-20T08:37:51.303Z,43.03
2023-07-20T08:40:43.474Z,43.08
2023-07-20T08:43:34.059Z,43.11
2023-07-20T08:46:23.801Z,42.76
2023-07-20T08:49:13.951Z,42.53
2023-07-20T08:52:04.128Z,42.28
2023-07-20T08:54:55.682Z,42.37
2023-07-20T08:57:48.600Z,42.43
2023-07-20T09:00:40.109Z,42.03
2023-07-20T09:03:29.748Z,42.21
2023-07-20T09:06:20.227Z,42.04
2023-07-20T09:09:09.306Z,42.03
2023-07-20T09:11:59.532Z,41.72
2023-07-20T09:14:48.286Z,41.80
2023-07-20T09:17:37.933Z,41.97
2023-07-20T09:20:26.802Z,41.66
2023-07-20T09:23:16.079Z,41.53
2023-07-20T09:26:13.550Z,41.47
2023-07-20T09:29:03.730Z,41.39
2023-07-20T09:32:02.981Z,41.18
2023-07-20T09:34:54.333Z,41.07
2023-07-20T09:37:43.575Z,40.69
2023-07-20T09:43:26.031Z,40.85
2023-07-20T09:46:59.271Z,41.03
2023-07-20T09:49:30.720Z,41.37
2023-07-20T09:55:13.065Z,41.13
2023-07-20T09:58:03.023Z,41.41
2023-07-20T10:00:55.182Z,41.55
2023-07-20T10:03:48.428Z,41.46
2023-07-20T10:06:38.469Z,41.99
2023-07-20T10:09:28.614Z,42.09
2023-07-20T10:12:18.825Z,42.35
2023-07-20T10:15:14.483Z,42.40
2023-07-20T10:18:07.669Z,42.43
2023-07-20T10:23:52.780Z,42.65
2023-07-20T10:26:42.492Z,42.80
2023-07-20T10:29:32.695Z,43.01
2023-07-20T10:32:22.642Z,42.84
2023-07-20T10:35:21.224Z,43.01
2023-07-20T10:38:11.407Z,42.82
2023-07-20T10:41:00.503Z,42.84
2023-07-20T10:43:50.191Z,42.96
2023-07-20T10:46:47.794Z,42.81
2023-07-20T10:49:38.206Z,42.58
2023-07-20T10:52:27.039Z,42.58
2023-07-20T10:55:19.421Z,42.71
2023-07-20T10:58:12.994Z,42.83
2023-07-20T11:01:04.576Z,42.91
2023-07-20T11:03:54.365Z,42.72
2023-07-20T11:06:46.262Z,42.80
2023-07-20T11:09:38.033Z,42.89
2023-07-20T11:12:29.769Z,43.32
2023-07-20T11:15:18.706Z,42.61
2023-07-20T11:18:17.206Z,43.00
2023-07-20T11:21:07.482Z,43.00
2023-07-20T11:23:58.056Z,43.08
2023-07-20T11:26:47.889Z,43.24
2023-07-20T11:29:38.597Z,43.07
2023-07-20T11:32:28.329Z,43.47
2023-07-20T11:35:16.972Z,43.58
2023-07-20T11:38:06.441Z,43.56
2023-07-20T11:41:01.321Z,43.39
2023-07-20T11:43:50.591Z,43.76
2023-07-20T11:46:41.558Z,43.57
2023-07-20T11:49:31.755Z,42.99
2023-07-20T11:52:21.795Z,43.53
2023-07-20T11:55:11.104Z,42.94
2023-07-20T11:58:06.922Z,42.85
2023-07-20T12:00:58.719Z,42.70
2023-07-20T12:03:51.569Z,42.53
2023-07-20T12:06:40.248Z,42.18
2023-07-20T12:09:41.670Z,42.22
2023-07-20T12:12:35.009Z,42.04
2023-07-20T12:15:25.077Z,42.48
2023-07-20T12:18:13.992Z,43.38
2023-07-20T12:21:05.549Z,43.72
2023-07-20T12:23:54.600Z,44.14
2023-07-20T12:26:43.374Z,44.39
2023-07-20T12:29:33.348Z,44.98
2023-07-20T12:32:22.349Z,45.29
2023-07-20T12:35:12.633Z,45.67
2023-07-20T12:38:03.423Z,45.16
2023-07-20T12:40:52.157Z,45.61
2023-07-20T12:43:41.187Z,45.77
2023-07-20T12:46:30.461Z,45.77
2023-07-20T12:49:19.158Z,45.89
2023-07-20T12:52:09.381Z,45.37
2023-07-20T12:54:59.960Z,45.10
2023-07-20T12:57:49.045Z,45.25
2023-07-20T13:00:37.970Z,45.35
2023-07-20T13:09:09.778Z,46.36
2023-07-20T13:11:59.776Z,46.10
2023-07-20T13:14:48.420Z,46.06
2023-07-20T13:17:37.824Z,45.51
2023-07-20T13:20:27.028Z,44.87
2023-07-20T13:23:15.901Z,44.85
2023-07-20T13:26:04.707Z,44.42
2023-07-20T13:28:56.220Z,44.43
2023-07-20T13:31:45.798Z,43.83
2023-07-20T13:34:34.599Z,43.85
2023-07-20T13:37:23.297Z,43.92
2023-07-20T13:40:14.565Z,43.47
2023-07-20T13:43:03.456Z,43.70
2023-07-20T13:45:53.611Z,43.42
2023-07-20T13:48:42.361Z,42.97
2023-07-20T13:51:31.209Z,43.45
2023-07-20T13:57:11.693Z,43.81
2023-07-20T14:00:01.433Z,43.53
2023-07-20T14:08:36.713Z,43.67
2023-07-20T14:14:17.574Z,44.05
2023-07-20T14:17:06.613Z,43.73
2023-07-20T14:19:57.203Z,43.99
2023-07-20T14:22:46.310Z,44.18
2023-07-20T14:25:38.176Z,44.06
2023-07-20T14:28:27.277Z,44.20
2023-07-20T14:31:16.040Z,44.12
2023-07-20T14:34:04.773Z,44.57
2023-07-20T14:36:54.889Z,44.62
2023-07-20T14:39:43.638Z,44.72
2023-07-20T14:42:33.341Z,45.14
2023-07-20T14:45:22.071Z,45.39
2023-07-20T14:48:10.997Z,45.50
2023-07-20T14:53:52.745Z,45.83
2023-07-20T14:56:42.034Z,45.30
2023-07-20T14:59:30.747Z,45.30
2023-07-20T15:02:19.572Z,44.65
2023-07-20T15:05:10.297Z,44.75
2023-07-20T15:07:59.056Z,44.75
2023-07-20T15:10:49.126Z,44.73
2023-07-20T15:13:37.810Z,44.73
2023-07-20T15:16:27.127Z,44.80
2023-07-20T15:19:17.117Z,45.01
2023-07-20T15:22:07.443Z,45.05
2023-07-20T15:24:56.548Z,44.88
2023-07-20T15:27:50.135Z,44.80
2023-07-20T15:33:31.486Z,44.76
2023-07-20T15:36:20.105Z,44.67
2023-07-20T15:39:08.809Z,44.77
2023-07-20T15:41:58.283Z,44.48
2023-07-20T15:44:50.223Z,44.00
2023-07-20T15:47:38.998Z,43.84
2023-07-20T15:50:28.178Z,43.69
2023-07-20T15:53:16.856Z,43.57
2023-07-20T15:56:05.883Z,43.42
2023-07-20T15:58:54.625Z,43.03
2023-07-20T16:01:46.555Z,43.42
2023-07-20T16:04:35.652Z,43.48
2023-07-20T16:07:24.271Z,43.67
2023-07-20T16:10:13.345Z,43.62
2023-07-20T16:13:04.179Z,42.95
2023-07-20T16:15:54.479Z,42.03
2023-07-20T16:18:44.803Z,41.96
2023-07-20T16:21:34.207Z,41.50
2023-07-20T16:24:24.557Z,41.34
2023-07-20T16:27:13.323Z,41.84
2023-07-20T16:30:02.647Z,41.72
2023-07-20T16:32:52.000Z,41.79
2023-07-20T16:38:43.171Z,42.18
2023-07-20T16:44:23.812Z,41.77
2023-07-20T16:47:12.529Z,41.67
2023-07-20T16:50:01.326Z,41.31
2023-07-20T16:52:51.460Z,41.60
2023-07-20T16:55:42.013Z,41.33
2023-07-20T16:58:30.881Z,41.49
2023-07-20T17:01:20.019Z,41.20
2023-07-20T17:04:08.925Z,41.27
2023-07-20T17:06:59.648Z,41.23
2023-07-20T17:09:50.642Z,41.24
2023-07-20T17:12:40.816Z,40.43
2023-07-20T17:15:29.505Z,39.99
2023-07-20T17:18:19.804Z,39.63
2023-07-20T17:21:08.696Z,38.69
2023-07-20T17:27:18.438Z,39.18
2023-07-20T17:30:00.122Z,39.30
2023-07-20T17:32:48.891Z,39.25
2023-07-20T17:35:37.658Z,39.51
2023-07-20T17:41:18.237Z,39.19
2023-07-20T17:44:09.367Z,39.38
2023-07-20T17:49:49.664Z,39.00
2023-07-20T17:52:38.318Z,39.31
2023-07-20T17:55:27.544Z,39.15
2023-07-20T17:58:16.256Z,39.11
2023-07-20T18:01:06.430Z,39.01
2023-07-20T18:03:55.185Z,38.87
2023-07-20T18:06:43.969Z,38.87
2023-07-20T18:09:32.727Z,39.54
2023-07-20T18:12:21.459Z,39.29
2023-07-20T18:15:10.854Z,39.28
2023-07-20T18:18:01.217Z,38.86
2023-07-20T18:20:50.090Z,39.00
2023-07-20T18:23:38.825Z,39.30
2023-07-20T18:26:27.635Z,39.10
2023-07-20T18:29:19.061Z,39.36
2023-07-20T18:32:08.722Z,39.07
2023-07-20T18:35:02.865Z,39.34
2023-07-20T18:37:51.609Z,39.39
2023-07-20T18:40:41.115Z,39.13
2023-07-20T18:43:30.118Z,39.25
2023-07-20T18:46:19.398Z,39.10
2023-07-20T18:49:08.132Z,39.31
2023-07-20T18:51:58.726Z,39.05
2023-07-20T18:54:47.368Z,39.01
2023-07-20T18:57:36.445Z,38.79
2023-07-20T19:00:25.207Z,39.23
2023-07-20T19:03:14.113Z,39.63
2023-07-20T19:06:03.452Z,39.29
2023-07-20T19:08:54.144Z,39.23
2023-07-20T19:14:34.674Z,39.24
2023-07-20T19:17:26.165Z,39.36
2023-07-20T19:20:16.556Z,38.97
2023-07-20T19:23:05.418Z,38.80
2023-07-20T19:25:55.839Z,38.82
2023-07-20T19:28:44.708Z,39.04
2023-07-20T19:31:33.397Z,39.01
2023-07-20T19:34:22.086Z,38.60
2023-07-20T19:37:11.922Z,38.97
2023-07-20T19:40:01.860Z,39.29
2023-07-20T19:42:52.134Z,38.96
2023-07-20T19:45:40.821Z,38.79
2023-07-20T19:48:29.456Z,39.01
2023-07-20T19:51:18.233Z,38.63
2023-07-20T19:56:59.254Z,38.65
2023-07-20T19:59:49.609Z,39.12
2023-07-20T20:05:31.103Z,38.94
2023-07-20T20:08:19.817Z,39.06
2023-07-20T20:14:00.082Z,38.45
2023-07-20T20:16:50.177Z,38.62
2023-07-20T20:19:38.985Z,38.56
2023-07-20T20:22:27.847Z,38.73
2023-07-20T20:25:16.743Z,38.42
2023-07-20T20:28:05.654Z,38.34
2023-07-20T20:30:54.925Z,38.28
2023-07-20T20:33:45.026Z,38.34
2023-07-20T20:36:33.787Z,38.10
2023-07-20T20:39:22.552Z,38.33
2023-07-20T20:42:12.133Z,38.61
2023-07-20T20:45:00.809Z,38.11
2023-07-20T20:47:49.767Z,38.23
2023-07-20T20:50:48.247Z,38.33
2023-07-20T20:53:37.082Z,38.61
2023-07-20T20:56:27.308Z,38.55
2023-07-20T20:59:20.816Z,38.55
2023-07-20T21:02:10.532Z,38.85
2023-07-20T21:04:59.606Z,38.69
2023-07-20T21:08:04.981Z,38.98
2023-07-20T21:10:54.556Z,38.67
2023-07-20T21:13:43.325Z,38.31
2023-07-20T21:16:32.092Z,37.98
2023-07-20T21:19:21.287Z,38.07
2023-07-20T21:22:10.104Z,37.91
2023-07-20T21:25:00.188Z,38.01
2023-07-20T21:27:48.921Z,38.35
2023-07-20T21:30:38.381Z,38.20
2023-07-20T21:33:27.097Z,38.53
2023-07-20T21:36:15.949Z,38.47
2023-07-20T21:39:04.970Z,38.75
2023-07-20T21:41:55.155Z,38.74
2023-07-20T21:44:45.946Z,38.80
2023-07-20T21:47:34.790Z,39.34
2023-07-20T21:50:23.446Z,39.37
2023-07-20T21:53:12.119Z,39.73
2023-07-20T21:56:00.873Z,39.90
2023-07-20T21:58:50.908Z,39.60
2023-07-20T22:04:31.284Z,39.98
2023-07-20T22:07:21.174Z,39.82
2023-07-20T22:10:10.520Z,40.19
2023-07-20T22:13:01.691Z,40.29
2023-07-20T22:15:52.573Z,39.64
2023-07-20T22:18:41.653Z,39.68
2023-07-20T22:21:30.439Z,39.64
2023-07-20T22:24:19.163Z,39.55
2023-07-20T22:27:10.055Z,39.73
2023-07-20T22:29:59.245Z,39.65
2023-07-20T22:32:49.316Z,39.62
2023-07-20T22:35:40.470Z,39.76
2023-07-20T22:38:29.200Z,39.67
2023-07-20T22:41:17.923Z,39.94
2023-07-20T22:44:06.684Z,39.96
2023-07-20T22:46:55.637Z,40.32
2023-07-20T22:49:45.961Z,40.10
2023-07-20T22:52:34.852Z,40.31
2023-07-20T22:55:23.685Z,40.19
2023-07-20T22:58:12.390Z,40.67
2023-07-20T23:01:01.153Z,40.93
2023-07-20T23:03:50.045Z,40.95
2023-07-20T23:06:40.230Z,40.88
2023-07-20T23:09:29.095Z,40.85
2023-07-20T23:12:17.814Z,40.78
2023-07-20T23:15:07.728Z,40.94
2023-07-20T23:17:59.872Z,41.05
2023-07-20T23:20:49.910Z,40.99
2023-07-20T23:23:40.138Z,40.93
2023-07-20T23:26:29.319Z,40.95
2023-07-20T23:29:18.241Z,41.05
2023-07-20T23:32:07.947Z,41.03
2023-07-20T23:34:56.737Z,40.84
2023-07-20T23:37:48.183Z,40.67
2023-07-20T23:40:38.250Z,40.98
2023-07-20T23:43:26.890Z,41.42
2023-07-20T23:46:24.168Z,41.52
2023-07-20T23:49:15.108Z,41.44
2023-07-20T23:52:03.814Z,41.48
2023-07-20T23:54:52.489Z,41.65
2023-07-20T23:57:44.852Z,41.37
